Terminal Aerodrome Forecast
Issued by NWS Pueblo, CO

Home | Current Version | Previous Version | Text Only | Print | Product List | Glossary On
Versions: 1 2 3 4 5 6 7 8 9 10 11 12 13 14 15 16 17 18 19 20 21 22 23 24 25 26 27 28 29 30 31 32 33 34 35 36 37 38 39 40 41 42 43 44 45 46 47 48 49
000
FTUS45 KPUB 051139
TAFCOS
TAF
KCOS 051139Z 0512/0612 36008KT P6SM SCT110 BKN200
     FM051700 17009KT P6SM SCT110 BKN200
     FM052000 20012G22KT P6SM VCTS SCT080CB BKN120
     FM052200 30012KT P6SM VCTS SCT060CB BKN100
      TEMPO 0522/0602 VRB20G30KT 5SM -TSRA BKN040CB
     FM060200 36014KT P6SM VCTS SCT060CB BKN120
     FM060400 35012KT P6SM SCT050 BKN200
     FM061000 35015G25KT P6SM SCT030 BKN050=

USA.gov is the U.S. government's official web portal to all federal, state and local government web resources and services.